Marcos Correia

Scout - Atlético Mineiro
23 Apr 2028
Sonntag
Verarbeitung

Persönlichkeit

Anpassungsfähigkeit (12) Ehrgeiz (12) Kontroverse (18) Loyalität (1) Druck (8) Professionalität (6) Fairness (3) Temperament (9)

Profil

Trainerstil Demokratisch
Lizenz Kontinentale Pro
Entschlossenheit 11
Menschenführung 8
Motivation 10
Disziplin 14
Arbeitszufriedenheit
100%
Ermüdung
0%
Rolle Scout
Gehalt 55.8K p/W
Vertrag 14.03.2029

Leistung

Verhalten Gut
Trainingseffektivität
50%
Spielerentwicklung
65%
Verletzungsprävention
60%
Taktische Umsetzung
60%

Letzte Ereignisse

Nahm an einer Scouting-Besprechung teil jetzt
Empfahl ein Transferziel jetzt
Nahm an einer Scouting-Besprechung teil 7T her
Empfahl ein Transferziel 7T her
Empfahl ein Transferziel 7T her
Nahm an einer Scouting-Besprechung teil 7T her
Empfahl ein Transferziel 14T her
Nahm an einer Scouting-Besprechung teil 14T her

Aktuell beobachtet

126
Spieler Verein Status Fähigkeit Vertrauen Beobachtet Zuletzt beobachtet Letzte Stimme
Kahiser Lenis Ceará Aktiv 120 / 120 30% 1 / 1m 07.07.2027 -
Renato Kayser Vitória Aktiv 122 / 124 79% 1 02.06.2027 Befürworten
Tyler Adams Bournemouth Aktiv 155 / 144 40% 1 31.05.2027 -
Moisés Caicedo Chelsea Aktiv 173 / 154 40% 1 31.05.2027 -
Dennis Cirkin Queens Park Rangers Aktiv 124 / 140 40% 1 31.05.2027 -
Elia Caprile Cagliari Aktiv 153 / 133 40% 7 30.05.2027 -
Giacomo Raspadori Atalanta Aktiv 146 / 146 40% 3 27.05.2027 -
Emanuel Emegha Chelsea Aktiv 143 / 137 40% 1 27.05.2027 -
Joe Gelhardt Hull City Aktiv 133 / 136 40% 6 26.05.2027 -
Assane Diao Como Aktiv 153 / 142 40% 1 26.05.2027 -
James Trafford Leeds United Aktiv 143 / 156 40% 5 25.05.2027 -
Thiago Brentford Aktiv 147 / 159 40% 1 23.05.2027 -
Rodrigo Muniz Fulham Aktiv 141 / 151 40% 1 23.05.2027 -
Michael Cooper Sheffield United Aktiv 126 / 142 40% 2 22.05.2027 -
Alejandro Rodríguez Melgar Aktiv 127 / 131 40% 1 22.05.2027 -
Zé Lucas Cruzeiro Aktiv 125 / 133 30% 1 / 1m 19.05.2027 -
Jonas Oeste Aktiv 77 / 82 30% 1 / 1m 19.05.2027 -
Delis Vargas Paysandu Aktiv 107 / 107 30% 1 / 1m 19.05.2027 -
Gustavo America Mineiro Aktiv 128 / 128 42% 1 / 1m 19.05.2027 -
George Wickens Lincoln City Aktiv 113 / 106 40% 1 19.05.2027 -
Mads Hermansen West Ham United Aktiv 136 / 155 40% 4 18.05.2027 -
Zion Suzuki Aston Villa Aktiv 150 / 154 40% 5 17.05.2027 -
Heorhii Yermakov Metalist Aktiv 117 / 123 40% 3 12.05.2027 -
Manuel Roffo Hajduk Split Aktiv 133 / 120 40% 2 12.05.2027 -
Deniz Ertaş Konyaspor Aktiv 129 / 130 40% 5 11.05.2027 -
Oufa Shobeir MC Alger Aktiv 131 / 122 40% 2 11.05.2027 -
Oliver Dovin Coventry City Aktiv 137 / 135 40% 1 11.05.2027 -
Mohammed Kudus Tottenham Aktiv 154 / 164 40% 1 11.05.2027 -
Nicolas Jackson Aston Villa Aktiv 149 / 152 40% 1 09.05.2027 -
Aune Heggebø West Bromwich Albion Aktiv 131 / 132 40% 5 07.05.2027 -
Ilyas Ansah Hull City Aktiv 132 / 139 40% 6 07.05.2027 -
Georginio Rutter Brighton Aktiv 144 / 159 40% 1 06.05.2027 -
Giorgos Koutsias Famalicao Aktiv 115 / 135 40% 3 30.04.2027 -
Anthony Patterson Wrexham Aktiv 130 / 144 40% 2 28.04.2027 -
Sam Greenwood Bristol City Aktiv 131 / 129 40% 2 27.04.2027 -
Mile Svilar AS Roma Aktiv 165 / 163 40% 2 27.04.2027 -
Joseph Leclercq Tottenham Aktiv 159 / 165 40% 1 27.04.2027 -
Malik Mothersille Stockport County Aktiv 118 / 123 40% 2 24.04.2027 -
Josh Keeley Luton Town Aktiv 126 / 143 40% 1 21.04.2027 -
Andreas Jungdal Westerlo Aktiv 118 / 131 40% 3 19.04.2027 -
Ivor Pandur Hull City Aktiv 123 / 110 40% 1 17.04.2027 -
Josh Coburn Millwall Aktiv 117 / 125 40% 1 17.04.2027 -
Wandile Duba ASO Chlef Aktiv 109 / 109 40% 2 14.04.2027 -
Lorenzo Colombo Genoa Aktiv 137 / 142 40% 2 11.04.2027 -
Dale Taylor Blackpool Aktiv 117 / 107 40% 1 11.04.2027 -
Yousef Salech Cardiff City Aktiv 129 / 129 40% 2 06.04.2027 -
Andrea Pinamonti Lazio Aktiv 142 / 146 40% 1 29.03.2027 -
Sorriso Famalicao Aktiv 137 / 140 40% 5 27.03.2027 -
Gustavo Silva Vitoria Guimaraes Aktiv 132 / 123 40% 8 26.03.2027 -
Lucas Duarte Felgueiras Aktiv 100 / 111 40% 3 26.03.2027 -
Korede Osundina Casa Pia Aktiv 118 / 109 40% 1 25.03.2027 -
Martín Tejón Maritimo Aktiv 117 / 115 40% 1 23.03.2027 -
Jorge Meireles AVS Aktiv 112 / 123 40% 2 22.03.2027 -
Maduka Okoye Udinese Aktiv 139 / 144 40% 2 21.03.2027 -
Cezary Miszta Rio Ave Aktiv 132 / 131 40% 2 19.03.2027 -
Grégoire Coudert Burnley Aktiv 131 / 123 40% 1 18.03.2027 -
Figueiredo Alverca Aktiv 121 / 113 40% 4 13.03.2027 -
Tamble Monteiro Rio Ave Aktiv 116 / 126 40% 3 13.03.2027 -
Luccas Paraízo Leixões Aktiv 112 / 106 40% 1 13.03.2027 -
Lorent Tolaj Plymouth Argyle Aktiv 127 / 135 40% 1 12.03.2027 -
Raúl Rangel Braga Aktiv 136 / 149 40% 2 09.03.2027 -
Lukas Jensen Millwall Aktiv 122 / 104 40% 1 06.03.2027 -
Alfonso Trezza Arouca Aktiv 129 / 120 40% 3 04.03.2027 -
Tyrese Campbell Sheffield United Aktiv 128 / 121 40% 2 04.03.2027 -
Vinícius Lopes Santa Clara Aktiv 116 / 115 40% 3 23.02.2027 -
Yanis Begraoui Estoril Praia Aktiv 131 / 124 40% 4 21.02.2027 -
Pau Víctor Braga Aktiv 145 / 126 40% 2 21.02.2027 -
Jorge Aguirre Torreense Aktiv 103 / 87 40% 2 20.02.2027 -
Mohammad Hosseini Malavan Aktiv 123 / 132 40% 2 20.02.2027 -
Dawda Camara Alverca Aktiv 122 / 126 40% 1 19.02.2027 -
Henrique Araújo Casa Pia Aktiv 123 / 122 40% 5 18.02.2027 -
Jackson Muleka Konyaspor Aktiv 136 / 115 40% 1 18.02.2027 -
André Lacximicant Estoril Praia Aktiv 109 / 116 40% 2 16.02.2027 -
Alireza Yazdani Padideh Aktiv 126 / 112 40% 1 15.02.2027 -
Lazar Carević Famalicao Aktiv 137 / 145 40% 1 15.02.2027 -
Sławomir Abramowicz Jagiellonia Aktiv 122 / 139 40% 1 12.02.2027 -
Fran Vieites Walsall Aktiv 113 / 114 40% 1 10.02.2027 -
Patrick Sequeira Casa Pia Aktiv 126 / 127 40% 1 10.02.2027 -
Gabriel Brazão Santos Aktiv 136 / 123 40% 1 09.02.2027 -
Rafael Navarro Famalicao Aktiv 122 / 125 40% 1 07.02.2027 -
Ianis Stoica Estrela da Amadora Aktiv 118 / 128 40% 2 05.02.2027 -
Gabriel Silva Braga Aktiv 126 / 121 40% 4 04.02.2027 -
Juan Diego Castillo Vitoria Guimaraes Aktiv 114 / 124 40% 1 02.02.2027 -
José Manuel López Palmeiras Aktiv 132 / 140 40% 2 15.01.2027 -
Negueba Mirassol Verloren 125 / 128 40% 2 15.01.2027 -
Vitinho Internacional Aktiv 130 / 136 40% 2 13.01.2027 -
Memphis Depay Corinthians Aktiv 147 / 140 79% 1 14.12.2026 Befürworten
Lucas Veríssimo Santos Aktiv 141 / 127 40% 3 28.11.2026 -
João Palhinha Benfica Verloren 143 / 134 40% 2 28.11.2026 -
Vitor Carvalho Braga Aktiv 131 / 132 40% 2 21.11.2026 -
Jacob Greaves Ipswich Town Aktiv 142 / 131 40% 1 21.11.2026 -
Zé Leite Moreirense Aktiv 111 / 117 40% 2 19.11.2026 -
Yassin Fortuné Vizela Aktiv 104 / 121 40% 1 19.11.2026 -
Leon Goretzka Aston Villa Aktiv 147 / 155 40% 1 16.11.2026 -
Nico González Newcastle United Aktiv 162 / 155 40% 1 16.11.2026 -
Bright Arrey-Mbi Braga Aktiv 140 / 130 40% 1 13.11.2026 -
Martinelli Fluminense Aktiv 142 / 150 40% 3 11.11.2026 -
Vitinho Botafogo Aktiv 131 / 140 40% 1 11.11.2026 -
Pablo Rosario Porto Aktiv 145 / 127 40% 2 09.11.2026 -
Lucas Paquetá Flamengo Verloren 136 / 131 40% 2 09.11.2026 -
Francisco Moura Porto Aktiv 143 / 147 40% 1 09.11.2026 -
Léo Ortiz Flamengo Aktiv 145 / 143 40% 2 07.11.2026 -
Iván Fresneda Sporting CP Aktiv 131 / 155 40% 2 07.11.2026 -
Alberto Costa Porto Aktiv 151 / 130 40% 4 05.11.2026 -
Eduardo Quaresma Sporting CP Aktiv 136 / 143 40% 1 05.11.2026 -
Leandro Barreiro Benfica Aktiv 136 / 139 40% 2 04.11.2026 -
Alexander Bah Benfica Aktiv 132 / 153 40% 1 04.11.2026 -
Dara O'Shea Ipswich Town Aktiv 135 / 125 40% 1 04.11.2026 -
Alexis Cuello San Lorenzo Aktiv 123 / 132 40% 1 30.10.2026 -
Isidro Pitta Bragantino Aktiv 128 / 128 40% 1 27.10.2026 -
Enzo Barrenechea Benfica Aktiv 145 / 148 40% 1 19.10.2026 -
Luciano Juba Bahia Aktiv 137 / 146 40% 1 16.10.2026 -
Nicolò Tresoldi Club Brugge Aktiv 127 / 125 40% 1 13.10.2026 -
Alejandro Piedrahita Deportivo Pereira Aktiv 125 / 127 40% 1 13.10.2026 -
Talles Magno New York City Aktiv 135 / 122 40% 2 01.10.2026 -
Zeno Debast Sporting CP Aktiv 142 / 151 40% 1 28.09.2026 -
Danilo Botafogo Aktiv 133 / 127 40% 1 25.09.2026 -
Nehuén Pérez Porto Aktiv 148 / 126 40% 1 21.09.2026 -
Dejan Joveljić Seattle Sounders Aktiv 121 / 121 40% 1 21.09.2026 -
Gustaf Lagerbielke Braga Aktiv 126 / 147 40% 1 18.09.2026 -
Arthur Flamengo Aktiv 139 / 148 40% 1 17.09.2026 -
Florentino Luís Ipswich Town Aktiv 139 / 127 40% 1 17.09.2026 -
Wessam Abou Ali Columbus Crew Aktiv 125 / 132 40% 1 07.09.2026 -
Bruno Larregui Juventud Aktiv 117 / 117 40% 1 07.09.2026 -
Pedro Flamengo Aktiv 136 / 148 40% 1 12.08.2026 Mehr Infos nötig
Gonçalo Guedes Real Sociedad Aktiv 139 / 158 40% 1 04.08.2026 -